sensor_id;sensor_type;location;lat;lon;timestamp;temperature;humidity
71254;HTU21D;59019;47.638;18.966;2022-12-13T00:00:39;-2.95;96.42
71254;HTU21D;59019;47.638;18.966;2022-12-13T00:03:06;-2.93;96.46
71254;HTU21D;59019;47.638;18.966;2022-12-13T00:05:32;-2.98;96.63
71254;HTU21D;59019;47.638;18.966;2022-12-13T00:07:59;-3.08;96.60
71254;HTU21D;59019;47.638;18.966;2022-12-13T00:10:25;-3.09;96.84
71254;HTU21D;59019;47.638;18.966;2022-12-13T00:12:50;-3.19;97.29
71254;HTU21D;59019;47.638;18.966;2022-12-13T00:15:16;-3.28;97.54
71254;HTU21D;59019;47.638;18.966;2022-12-13T00:17:42;-3.31;97.94
71254;HTU21D;59019;47.638;18.966;2022-12-13T00:20:10;-3.25;97.78
71254;HTU21D;59019;47.638;18.966;2022-12-13T00:22:35;-3.20;97.34
71254;HTU21D;59019;47.638;18.966;2022-12-13T00:25:01;-3.24;97.00
71254;HTU21D;59019;47.638;18.966;2022-12-13T00:27:27;-3.24;96.87
71254;HTU21D;59019;47.638;18.966;2022-12-13T00:29:52;-3.23;97.03
71254;HTU21D;59019;47.638;18.966;2022-12-13T00:32:18;-3.30;97.00
71254;HTU21D;59019;47.638;18.966;2022-12-13T00:34:43;-3.26;96.72
71254;HTU21D;59019;47.638;18.966;2022-12-13T00:37:09;-3.31;96.58
71254;HTU21D;59019;47.638;18.966;2022-12-13T00:39:34;-3.31;96.23
71254;HTU21D;59019;47.638;18.966;2022-12-13T00:42:00;-3.38;96.68
71254;HTU21D;59019;47.638;18.966;2022-12-13T00:44:25;-3.39;96.75
71254;HTU21D;59019;47.638;18.966;2022-12-13T00:46:51;-3.50;97.04
71254;HTU21D;59019;47.638;18.966;2022-12-13T00:49:17;-3.64;97.76
71254;HTU21D;59019;47.638;18.966;2022-12-13T00:51:43;-3.65;98.22
71254;HTU21D;59019;47.638;18.966;2022-12-13T00:54:08;-3.66;98.20
71254;HTU21D;59019;47.638;18.966;2022-12-13T00:56:36;-3.62;98.28
71254;HTU21D;59019;47.638;18.966;2022-12-13T00:59:02;-3.54;97.91
71254;HTU21D;59019;47.638;18.966;2022-12-13T01:01:30;-3.43;97.68
71254;HTU21D;59019;47.638;18.966;2022-12-13T01:03:57;-3.41;97.20
71254;HTU21D;59019;47.638;18.966;2022-12-13T01:06:30;-3.49;97.00
71254;HTU21D;59019;47.638;18.966;2022-12-13T01:08:58;-3.52;97.49
71254;HTU21D;59019;47.638;18.966;2022-12-13T01:11:24;-3.42;97.64
71254;HTU21D;59019;47.638;18.966;2022-12-13T01:13:49;-3.42;98.57
71254;HTU21D;59019;47.638;18.966;2022-12-13T01:16:15;-3.40;98.54
71254;HTU21D;59019;47.638;18.966;2022-12-13T01:18:41;-3.34;99.17
71254;HTU21D;59019;47.638;18.966;2022-12-13T01:21:11;-3.37;99.11
71254;HTU21D;59019;47.638;18.966;2022-12-13T01:23:38;-3.45;98.38
71254;HTU21D;59019;47.638;18.966;2022-12-13T01:26:07;-3.41;98.19
71254;HTU21D;59019;47.638;18.966;2022-12-13T01:28:34;-3.46;97.84
71254;HTU21D;59019;47.638;18.966;2022-12-13T01:31:03;-3.51;98.08
71254;HTU21D;59019;47.638;18.966;2022-12-13T01:33:30;-3.42;97.78
71254;HTU21D;59019;47.638;18.966;2022-12-13T01:35:59;-3.48;97.45
71254;HTU21D;59019;47.638;18.966;2022-12-13T01:38:25;-3.43;97.20
71254;HTU21D;59019;47.638;18.966;2022-12-13T01:40:52;-3.46;97.23
71254;HTU21D;59019;47.638;18.966;2022-12-13T01:46:01;-3.42;97.94
71254;HTU21D;59019;47.638;18.966;2022-12-13T01:48:31;-3.36;97.74
71254;HTU21D;59019;47.638;18.966;2022-12-13T01:51:01;-3.41;97.68
71254;HTU21D;59019;47.638;18.966;2022-12-13T01:53:30;-3.42;97.96
71254;HTU21D;59019;47.638;18.966;2022-12-13T01:56:01;-3.34;98.36
71254;HTU21D;59019;47.638;18.966;2022-12-13T01:58:28;-3.30;98.35
71254;HTU21D;59019;47.638;18.966;2022-12-13T02:00:57;-3.13;99.89
71254;HTU21D;59019;47.638;18.966;2022-12-13T02:03:24;-3.20;99.30
71254;HTU21D;59019;47.638;18.966;2022-12-13T02:08:18;-3.03;98.98
71254;HTU21D;59019;47.638;18.966;2022-12-13T02:10:45;-3.07;98.39
71254;HTU21D;59019;47.638;18.966;2022-12-13T02:13:11;-3.02;98.37
71254;HTU21D;59019;47.638;18.966;2022-12-13T02:21:00;-3.26;98.43
71254;HTU21D;59019;47.638;18.966;2022-12-13T02:32:00;-3.34;98.11
71254;HTU21D;59019;47.638;18.966;2022-12-13T02:34:26;-3.27;97.95
71254;HTU21D;59019;47.638;18.966;2022-12-13T02:37:06;-3.22;97.83
71254;HTU21D;59019;47.638;18.966;2022-12-13T02:40:02;-3.18;97.25
71254;HTU21D;59019;47.638;18.966;2022-12-13T02:42:49;-3.24;96.88
71254;HTU21D;59019;47.638;18.966;2022-12-13T02:45:20;-3.24;96.83
71254;HTU21D;59019;47.638;18.966;2022-12-13T02:47:49;-3.31;96.64
71254;HTU21D;59019;47.638;18.966;2022-12-13T02:50:16;-3.33;96.63
71254;HTU21D;59019;47.638;18.966;2022-12-13T02:52:42;-3.49;96.63
71254;HTU21D;59019;47.638;18.966;2022-12-13T02:55:13;-3.48;96.79
71254;HTU21D;59019;47.638;18.966;2022-12-13T02:57:40;-3.46;97.50
71254;HTU21D;59019;47.638;18.966;2022-12-13T03:00:11;-3.45;98.16
71254;HTU21D;59019;47.638;18.966;2022-12-13T03:17:50;-3.49;97.37
71254;HTU21D;59019;47.638;18.966;2022-12-13T03:20:21;-3.53;97.34
71254;HTU21D;59019;47.638;18.966;2022-12-13T03:22:47;-3.66;97.45
71254;HTU21D;59019;47.638;18.966;2022-12-13T03:25:16;-3.67;97.71
71254;HTU21D;59019;47.638;18.966;2022-12-13T03:27:42;-3.74;98.03
71254;HTU21D;59019;47.638;18.966;2022-12-13T03:30:08;-3.85;98.55
71254;HTU21D;59019;47.638;18.966;2022-12-13T03:32:33;-3.80;98.39
71254;HTU21D;59019;47.638;18.966;2022-12-13T03:34:59;-3.89;98.33
71254;HTU21D;59019;47.638;18.966;2022-12-13T03:37:24;-3.95;98.63
71254;HTU21D;59019;47.638;18.966;2022-12-13T03:39:50;-3.89;98.32
71254;HTU21D;59019;47.638;18.966;2022-12-13T03:42:15;-3.90;98.26
71254;HTU21D;59019;47.638;18.966;2022-12-13T03:44:42;-3.93;98.30
71254;HTU21D;59019;47.638;18.966;2022-12-13T03:47:08;-3.97;98.37
71254;HTU21D;59019;47.638;18.966;2022-12-13T03:49:33;-3.94;98.44
71254;HTU21D;59019;47.638;18.966;2022-12-13T03:51:58;-4.09;98.68
71254;HTU21D;59019;47.638;18.966;2022-12-13T03:54:24;-4.05;99.17
71254;HTU21D;59019;47.638;18.966;2022-12-13T03:56:49;-4.11;99.03
71254;HTU21D;59019;47.638;18.966;2022-12-13T03:59:15;-4.10;99.09
71254;HTU21D;59019;47.638;18.966;2022-12-13T04:01:40;-4.07;99.08
71254;HTU21D;59019;47.638;18.966;2022-12-13T04:04:06;-4.12;99.32
71254;HTU21D;59019;47.638;18.966;2022-12-13T04:06:31;-4.15;99.80
71254;HTU21D;59019;47.638;18.966;2022-12-13T04:08:57;-4.15;99.71
71254;HTU21D;59019;47.638;18.966;2022-12-13T04:11:22;-4.13;99.74
71254;HTU21D;59019;47.638;18.966;2022-12-13T04:14:06;-4.20;99.84
71254;HTU21D;59019;47.638;18.966;2022-12-13T04:16:32;-4.24;99.88
71254;HTU21D;59019;47.638;18.966;2022-12-13T04:18:57;-4.26;99.71
71254;HTU21D;59019;47.638;18.966;2022-12-13T04:21:23;-4.37;99.35
71254;HTU21D;59019;47.638;18.966;2022-12-13T04:23:48;-4.36;99.38
71254;HTU21D;59019;47.638;18.966;2022-12-13T04:26:14;-4.34;99.28
71254;HTU21D;59019;47.638;18.966;2022-12-13T04:28:40;-4.36;98.94
71254;HTU21D;59019;47.638;18.966;2022-12-13T04:31:05;-4.40;98.87
71254;HTU21D;59019;47.638;18.966;2022-12-13T04:33:31;-4.38;99.03
71254;HTU21D;59019;47.638;18.966;2022-12-13T04:35:57;-4.37;98.86
71254;HTU21D;59019;47.638;18.966;2022-12-13T04:38:23;-4.42;98.80
71254;HTU21D;59019;47.638;18.966;2022-12-13T04:40:48;-4.48;98.87
71254;HTU21D;59019;47.638;18.966;2022-12-13T04:43:14;-4.36;98.78
71254;HTU21D;59019;47.638;18.966;2022-12-13T04:45:40;-4.41;98.48
71254;HTU21D;59019;47.638;18.966;2022-12-13T04:48:05;-4.46;98.49
71254;HTU21D;59019;47.638;18.966;2022-12-13T04:50:32;-4.50;98.48
71254;HTU21D;59019;47.638;18.966;2022-12-13T04:52:57;-4.55;98.64
71254;HTU21D;59019;47.638;18.966;2022-12-13T04:55:23;-4.56;98.68
71254;HTU21D;59019;47.638;18.966;2022-12-13T04:57:48;-4.53;98.64
71254;HTU21D;59019;47.638;18.966;2022-12-13T05:00:14;-4.49;98.46
71254;HTU21D;59019;47.638;18.966;2022-12-13T05:02:40;-4.51;98.54
71254;HTU21D;59019;47.638;18.966;2022-12-13T05:05:08;-4.52;99.21
71254;HTU21D;59019;47.638;18.966;2022-12-13T05:07:34;-4.45;100.25
71254;HTU21D;59019;47.638;18.966;2022-12-13T05:09:59;-4.41;100.24
71254;HTU21D;59019;47.638;18.966;2022-12-13T05:12:24;-4.44;100.43
71254;HTU21D;59019;47.638;18.966;2022-12-13T05:14:51;-4.51;100.34
71254;HTU21D;59019;47.638;18.966;2022-12-13T05:17:17;-4.49;100.09
71254;HTU21D;59019;47.638;18.966;2022-12-13T05:19:43;-4.45;99.55
71254;HTU21D;59019;47.638;18.966;2022-12-13T05:22:10;-4.49;99.19
71254;HTU21D;59019;47.638;18.966;2022-12-13T05:24:42;-4.52;99.40
71254;HTU21D;59019;47.638;18.966;2022-12-13T05:27:08;-4.66;99.73
71254;HTU21D;59019;47.638;18.966;2022-12-13T05:29:34;-4.68;99.68
71254;HTU21D;59019;47.638;18.966;2022-12-13T05:32:00;-4.71;99.46
71254;HTU21D;59019;47.638;18.966;2022-12-13T05:34:26;-4.71;99.50
71254;HTU21D;59019;47.638;18.966;2022-12-13T05:36:52;-4.71;99.28
71254;HTU21D;59019;47.638;18.966;2022-12-13T05:39:17;-4.66;99.19
71254;HTU21D;59019;47.638;18.966;2022-12-13T05:41:43;-4.70;99.02
71254;HTU21D;59019;47.638;18.966;2022-12-13T05:44:08;-4.74;99.20
71254;HTU21D;59019;47.638;18.966;2022-12-13T05:46:35;-4.72;99.27
71254;HTU21D;59019;47.638;18.966;2022-12-13T05:49:01;-4.75;99.19
71254;HTU21D;59019;47.638;18.966;2022-12-13T05:51:27;-4.69;99.19
71254;HTU21D;59019;47.638;18.966;2022-12-13T05:53:52;-4.69;99.08
71254;HTU21D;59019;47.638;18.966;2022-12-13T05:56:18;-4.79;99.08
71254;HTU21D;59019;47.638;18.966;2022-12-13T05:58:43;-4.65;100.51
71254;HTU21D;59019;47.638;18.966;2022-12-13T06:01:12;-4.58;100.85
71254;HTU21D;59019;47.638;18.966;2022-12-13T06:03:39;-4.63;100.90
71254;HTU21D;59019;47.638;18.966;2022-12-13T06:06:06;-4.51;101.18
71254;HTU21D;59019;47.638;18.966;2022-12-13T06:08:33;-4.42;101.56
71254;HTU21D;59019;47.638;18.966;2022-12-13T06:11:00;-4.34;101.73
71254;HTU21D;59019;47.638;18.966;2022-12-13T06:13:26;-4.30;101.62
71254;HTU21D;59019;47.638;18.966;2022-12-13T06:15:52;-4.34;100.86
71254;HTU21D;59019;47.638;18.966;2022-12-13T06:18:18;-4.40;100.16
71254;HTU21D;59019;47.638;18.966;2022-12-13T06:20:44;-4.37;99.74
71254;HTU21D;59019;47.638;18.966;2022-12-13T06:23:12;-4.42;99.03
71254;HTU21D;59019;47.638;18.966;2022-12-13T06:25:37;-4.46;98.56
71254;HTU21D;59019;47.638;18.966;2022-12-13T06:28:03;-4.56;98.26
71254;HTU21D;59019;47.638;18.966;2022-12-13T06:30:29;-4.67;98.73
71254;HTU21D;59019;47.638;18.966;2022-12-13T06:32:55;-4.63;98.90
71254;HTU21D;59019;47.638;18.966;2022-12-13T06:35:21;-4.54;98.51
71254;HTU21D;59019;47.638;18.966;2022-12-13T06:37:50;-4.54;98.00
71254;HTU21D;59019;47.638;18.966;2022-12-13T06:40:16;-4.56;97.84
71254;HTU21D;59019;47.638;18.966;2022-12-13T06:42:42;-4.67;97.94
71254;HTU21D;59019;47.638;18.966;2022-12-13T06:45:07;-4.49;99.03
71254;HTU21D;59019;47.638;18.966;2022-12-13T06:47:34;-4.43;99.41
71254;HTU21D;59019;47.638;18.966;2022-12-13T06:49:59;-4.32;100.25
71254;HTU21D;59019;47.638;18.966;2022-12-13T06:52:25;-4.30;100.78
71254;HTU21D;59019;47.638;18.966;2022-12-13T06:54:50;-4.20;100.73
71254;HTU21D;59019;47.638;18.966;2022-12-13T06:57:16;-4.12;101.13
71254;HTU21D;59019;47.638;18.966;2022-12-13T06:59:41;-4.14;100.32
71254;HTU21D;59019;47.638;18.966;2022-12-13T07:02:07;-4.27;99.05
71254;HTU21D;59019;47.638;18.966;2022-12-13T07:04:32;-4.38;97.96
71254;HTU21D;59019;47.638;18.966;2022-12-13T07:06:58;-4.42;97.55
71254;HTU21D;59019;47.638;18.966;2022-12-13T07:09:24;-4.45;97.22
71254;HTU21D;59019;47.638;18.966;2022-12-13T07:11:50;-4.49;97.03
71254;HTU21D;59019;47.638;18.966;2022-12-13T07:14:16;-4.35;98.35
71254;HTU21D;59019;47.638;18.966;2022-12-13T07:16:42;-4.36;99.22
71254;HTU21D;59019;47.638;18.966;2022-12-13T07:19:08;-4.39;99.80
71254;HTU21D;59019;47.638;18.966;2022-12-13T07:21:35;-4.38;99.29
71254;HTU21D;59019;47.638;18.966;2022-12-13T07:24:02;-4.30;99.17
71254;HTU21D;59019;47.638;18.966;2022-12-13T07:26:28;-4.17;99.29
71254;HTU21D;59019;47.638;18.966;2022-12-13T07:28:54;-4.15;98.97
71254;HTU21D;59019;47.638;18.966;2022-12-13T07:31:19;-4.13;98.58
71254;HTU21D;59019;47.638;18.966;2022-12-13T07:33:45;-4.16;97.36
71254;HTU21D;59019;47.638;18.966;2022-12-13T07:36:13;-4.28;95.64
71254;HTU21D;59019;47.638;18.966;2022-12-13T07:38:39;-4.30;95.15
71254;HTU21D;59019;47.638;18.966;2022-12-13T07:41:05;-4.32;95.14
71254;HTU21D;59019;47.638;18.966;2022-12-13T07:43:31;-4.36;94.81
71254;HTU21D;59019;47.638;18.966;2022-12-13T07:45:58;-4.38;94.74
71254;HTU21D;59019;47.638;18.966;2022-12-13T07:48:24;-4.44;94.51
71254;HTU21D;59019;47.638;18.966;2022-12-13T07:50:51;-4.44;94.30
71254;HTU21D;59019;47.638;18.966;2022-12-13T07:53:16;-4.49;94.46
71254;HTU21D;59019;47.638;18.966;2022-12-13T07:55:42;-4.51;94.87
71254;HTU21D;59019;47.638;18.966;2022-12-13T07:58:10;-4.50;95.00
71254;HTU21D;59019;47.638;18.966;2022-12-13T08:00:37;-4.45;95.00
71254;HTU21D;59019;47.638;18.966;2022-12-13T08:03:03;-4.48;94.81
71254;HTU21D;59019;47.638;18.966;2022-12-13T08:05:30;-4.49;95.00
71254;HTU21D;59019;47.638;18.966;2022-12-13T08:07:55;-4.46;96.26
71254;HTU21D;59019;47.638;18.966;2022-12-13T08:10:21;-4.37;97.16
71254;HTU21D;59019;47.638;18.966;2022-12-13T08:12:47;-4.35;97.78
71254;HTU21D;59019;47.638;18.966;2022-12-13T08:15:14;-4.28;98.56
71254;HTU21D;59019;47.638;18.966;2022-12-13T08:17:42;-4.24;98.66
71254;HTU21D;59019;47.638;18.966;2022-12-13T08:20:08;-4.22;98.45
71254;HTU21D;59019;47.638;18.966;2022-12-13T08:22:34;-4.22;98.13
71254;HTU21D;59019;47.638;18.966;2022-12-13T08:24:59;-4.20;97.89
71254;HTU21D;59019;47.638;18.966;2022-12-13T08:27:25;-4.15;98.09
71254;HTU21D;59019;47.638;18.966;2022-12-13T08:29:51;-4.11;98.39
71254;HTU21D;59019;47.638;18.966;2022-12-13T08:32:17;-4.11;97.98
71254;HTU21D;59019;47.638;18.966;2022-12-13T08:34:42;-4.12;97.48
71254;HTU21D;59019;47.638;18.966;2022-12-13T08:37:11;-4.07;97.10
71254;HTU21D;59019;47.638;18.966;2022-12-13T08:39:37;-4.11;96.85
71254;HTU21D;59019;47.638;18.966;2022-12-13T08:42:06;-4.05;96.83
71254;HTU21D;59019;47.638;18.966;2022-12-13T08:44:32;-4.02;96.72
71254;HTU21D;59019;47.638;18.966;2022-12-13T08:46:57;-4.09;96.73
71254;HTU21D;59019;47.638;18.966;2022-12-13T08:49:23;-3.99;97.03
71254;HTU21D;59019;47.638;18.966;2022-12-13T08:51:48;-3.84;96.82
71254;HTU21D;59019;47.638;18.966;2022-12-13T08:54:14;-3.80;96.67
71254;HTU21D;59019;47.638;18.966;2022-12-13T08:56:41;-3.69;97.77
71254;HTU21D;59019;47.638;18.966;2022-12-13T08:59:06;-3.61;99.77
71254;HTU21D;59019;47.638;18.966;2022-12-13T09:01:32;-3.42;101.10
71254;HTU21D;59019;47.638;18.966;2022-12-13T09:03:57;-3.23;101.56
71254;HTU21D;59019;47.638;18.966;2022-12-13T09:06:23;-3.18;101.12
71254;HTU21D;59019;47.638;18.966;2022-12-13T09:08:52;-3.10;100.85
71254;HTU21D;59019;47.638;18.966;2022-12-13T09:11:17;-3.05;100.30
71254;HTU21D;59019;47.638;18.966;2022-12-13T09:13:43;-3.05;99.56
71254;HTU21D;59019;47.638;18.966;2022-12-13T09:16:15;-3.04;98.29
71254;HTU21D;59019;47.638;18.966;2022-12-13T09:18:43;-2.86;98.41
71254;HTU21D;59019;47.638;18.966;2022-12-13T09:21:09;-2.73;97.74
71254;HTU21D;59019;47.638;18.966;2022-12-13T09:23:35;-2.63;96.90
71254;HTU21D;59019;47.638;18.966;2022-12-13T09:26:01;-2.52;96.21
71254;HTU21D;59019;47.638;18.966;2022-12-13T09:28:28;-2.45;95.20
71254;HTU21D;59019;47.638;18.966;2022-12-13T09:30:54;-2.38;94.94
71254;HTU21D;59019;47.638;18.966;2022-12-13T09:33:20;-2.36;94.86
71254;HTU21D;59019;47.638;18.966;2022-12-13T09:35:46;-2.20;94.92
71254;HTU21D;59019;47.638;18.966;2022-12-13T09:38:11;-2.17;94.24
71254;HTU21D;59019;47.638;18.966;2022-12-13T09:40:38;-2.06;94.14
71254;HTU21D;59019;47.638;18.966;2022-12-13T09:43:05;-1.99;94.42
71254;HTU21D;59019;47.638;18.966;2022-12-13T09:45:33;-1.86;94.21
71254;HTU21D;59019;47.638;18.966;2022-12-13T09:47:59;-1.75;95.55
71254;HTU21D;59019;47.638;18.966;2022-12-13T09:50:32;-1.77;95.80
71254;HTU21D;59019;47.638;18.966;2022-12-13T09:53:00;-1.73;95.03
71254;HTU21D;59019;47.638;18.966;2022-12-13T09:55:44;-1.57;95.84
71254;HTU21D;59019;47.638;18.966;2022-12-13T09:58:20;-1.48;95.95
71254;HTU21D;59019;47.638;18.966;2022-12-13T10:00:49;-1.35;95.59
71254;HTU21D;59019;47.638;18.966;2022-12-13T10:03:17;-1.32;95.51
71254;HTU21D;59019;47.638;18.966;2022-12-13T10:05:50;-1.26;95.72
71254;HTU21D;59019;47.638;18.966;2022-12-13T10:08:23;-1.13;95.52
71254;HTU21D;59019;47.638;18.966;2022-12-13T10:10:50;-1.03;95.22
71254;HTU21D;59019;47.638;18.966;2022-12-13T10:16:19;-0.83;95.15
71254;HTU21D;59019;47.638;18.966;2022-12-13T10:18:47;-0.75;94.42
71254;HTU21D;59019;47.638;18.966;2022-12-13T10:23:42;-0.69;92.98
71254;HTU21D;59019;47.638;18.966;2022-12-13T10:26:10;-0.68;91.62
71254;HTU21D;59019;47.638;18.966;2022-12-13T10:28:36;-0.52;91.79
71254;HTU21D;59019;47.638;18.966;2022-12-13T10:31:02;-0.52;90.22
71254;HTU21D;59019;47.638;18.966;2022-12-13T10:33:31;-0.46;89.02
71254;HTU21D;59019;47.638;18.966;2022-12-13T10:38:49;-0.15;88.51
71254;HTU21D;59019;47.638;18.966;2022-12-13T10:41:38;-0.08;87.48
71254;HTU21D;59019;47.638;18.966;2022-12-13T10:46:37;0.24;87.77
71254;HTU21D;59019;47.638;18.966;2022-12-13T10:49:21;0.35;86.83
71254;HTU21D;59019;47.638;18.966;2022-12-13T10:51:49;0.60;87.06
71254;HTU21D;59019;47.638;18.966;2022-12-13T10:54:29;0.68;86.54
71254;HTU21D;59019;47.638;18.966;2022-12-13T10:56:56;0.87;85.45
71254;HTU21D;59019;47.638;18.966;2022-12-13T10:59:36;1.12;86.29
71254;HTU21D;59019;47.638;18.966;2022-12-13T11:04:51;1.24;81.31
71254;HTU21D;59019;47.638;18.966;2022-12-13T11:07:30;1.21;81.40
71254;HTU21D;59019;47.638;18.966;2022-12-13T11:09:57;1.11;80.00
71254;HTU21D;59019;47.638;18.966;2022-12-13T11:12:25;1.26;81.05
71254;HTU21D;59019;47.638;18.966;2022-12-13T11:17:28;1.41;79.07
71254;HTU21D;59019;47.638;18.966;2022-12-13T11:19:57;1.38;78.97
71254;HTU21D;59019;47.638;18.966;2022-12-13T11:22:29;1.47;78.54
71254;HTU21D;59019;47.638;18.966;2022-12-13T11:25:08;1.73;78.65
71254;HTU21D;59019;47.638;18.966;2022-12-13T11:30:29;1.62;76.91
71254;HTU21D;59019;47.638;18.966;2022-12-13T11:40:39;2.12;79.31
71254;HTU21D;59019;47.638;18.966;2022-12-13T11:43:37;1.94;76.31
71254;HTU21D;59019;47.638;18.966;2022-12-13T11:46:18;2.06;76.87
71254;HTU21D;59019;47.638;18.966;2022-12-13T11:49:16;2.23;76.68
71254;HTU21D;59019;47.638;18.966;2022-12-13T11:52:01;2.27;77.02
71254;HTU21D;59019;47.638;18.966;2022-12-13T11:56:56;1.93;74.60
71254;HTU21D;59019;47.638;18.966;2022-12-13T11:59:33;1.95;75.05
71254;HTU21D;59019;47.638;18.966;2022-12-13T12:04:57;1.92;74.44
71254;HTU21D;59019;47.638;18.966;2022-12-13T12:07:46;1.90;75.13
71254;HTU21D;59019;47.638;18.966;2022-12-13T12:10:32;1.65;74.28
71254;HTU21D;59019;47.638;18.966;2022-12-13T12:13:51;1.68;74.15
71254;HTU21D;59019;47.638;18.966;2022-12-13T12:16:27;1.50;74.91
71254;HTU21D;59019;47.638;18.966;2022-12-13T12:18:55;1.52;75.43
71254;HTU21D;59019;47.638;18.966;2022-12-13T12:21:45;1.38;74.35
71254;HTU21D;59019;47.638;18.966;2022-12-13T12:32:52;0.89;75.77
71254;HTU21D;59019;47.638;18.966;2022-12-13T12:41:06;1.17;75.72
71254;HTU21D;59019;47.638;18.966;2022-12-13T12:43:37;1.33;77.93
71254;HTU21D;59019;47.638;18.966;2022-12-13T12:59:26;1.09;79.28
71254;HTU21D;59019;47.638;18.966;2022-12-13T13:04:42;1.05;78.18
71254;HTU21D;59019;47.638;18.966;2022-12-13T13:07:15;0.95;79.98
71254;HTU21D;59019;47.638;18.966;2022-12-13T13:09:43;0.74;80.03
71254;HTU21D;59019;47.638;18.966;2022-12-13T13:12:09;0.53;79.17
71254;HTU21D;59019;47.638;18.966;2022-12-13T13:14:37;0.46;78.56
71254;HTU21D;59019;47.638;18.966;2022-12-13T13:20:30;-0.03;79.33
71254;HTU21D;59019;47.638;18.966;2022-12-13T13:22:56;-0.03;79.59
71254;HTU21D;59019;47.638;18.966;2022-12-13T13:25:30;-0.07;80.27
71254;HTU21D;59019;47.638;18.966;2022-12-13T13:28:16;-0.13;80.82
71254;HTU21D;59019;47.638;18.966;2022-12-13T13:31:04;-0.23;80.43
71254;HTU21D;59019;47.638;18.966;2022-12-13T13:33:46;-0.22;81.66
71254;HTU21D;59019;47.638;18.966;2022-12-13T13:39:03;-0.26;85.64
71254;HTU21D;59019;47.638;18.966;2022-12-13T14:12:09;-0.95;84.19
71254;HTU21D;59019;47.638;18.966;2022-12-13T14:21:02;-1.35;86.56
71254;HTU21D;59019;47.638;18.966;2022-12-13T14:26:39;-1.55;86.80
71254;HTU21D;59019;47.638;18.966;2022-12-13T14:29:14;-1.69;87.15
71254;HTU21D;59019;47.638;18.966;2022-12-13T14:31:42;-1.80;87.41
71254;HTU21D;59019;47.638;18.966;2022-12-13T14:34:22;-1.84;87.64
71254;HTU21D;59019;47.638;18.966;2022-12-13T14:37:02;-1.93;87.76
71254;HTU21D;59019;47.638;18.966;2022-12-13T14:39:29;-1.98;87.84
71254;HTU21D;59019;47.638;18.966;2022-12-13T14:42:00;-2.10;88.04
71254;HTU21D;59019;47.638;18.966;2022-12-13T14:44:27;-2.20;88.67
71254;HTU21D;59019;47.638;18.966;2022-12-13T14:49:25;-2.23;88.58
71254;HTU21D;59019;47.638;18.966;2022-12-13T14:52:15;-2.31;88.76
71254;HTU21D;59019;47.638;18.966;2022-12-13T14:54:52;-2.32;89.07
71254;HTU21D;59019;47.638;18.966;2022-12-13T14:57:21;-2.42;88.91
71254;HTU21D;59019;47.638;18.966;2022-12-13T14:59:49;-2.48;89.50
71254;HTU21D;59019;47.638;18.966;2022-12-13T15:02:20;-2.51;91.86
71254;HTU21D;59019;47.638;18.966;2022-12-13T15:04:46;-2.54;93.21
71254;HTU21D;59019;47.638;18.966;2022-12-13T15:07:28;-2.58;94.11
71254;HTU21D;59019;47.638;18.966;2022-12-13T15:09:58;-2.57;93.27
71254;HTU21D;59019;47.638;18.966;2022-12-13T15:12:25;-2.69;92.05
71254;HTU21D;59019;47.638;18.966;2022-12-13T15:18:03;-2.78;90.67
71254;HTU21D;59019;47.638;18.966;2022-12-13T15:20:30;-2.84;90.31
71254;HTU21D;59019;47.638;18.966;2022-12-13T15:22:59;-2.84;91.40
71254;HTU21D;59019;47.638;18.966;2022-12-13T15:25:28;-2.81;92.32
71254;HTU21D;59019;47.638;18.966;2022-12-13T15:27:54;-2.90;93.50
71254;HTU21D;59019;47.638;18.966;2022-12-13T15:30:20;-2.95;93.46
71254;HTU21D;59019;47.638;18.966;2022-12-13T15:33:21;-2.97;93.14
71254;HTU21D;59019;47.638;18.966;2022-12-13T15:35:48;-3.02;92.62
71254;HTU21D;59019;47.638;18.966;2022-12-13T15:38:23;-3.19;91.56
71254;HTU21D;59019;47.638;18.966;2022-12-13T15:40:49;-3.26;91.17
71254;HTU21D;59019;47.638;18.966;2022-12-13T15:43:17;-3.37;91.34
71254;HTU21D;59019;47.638;18.966;2022-12-13T15:45:46;-3.41;91.52
71254;HTU21D;59019;47.638;18.966;2022-12-13T15:48:26;-3.49;91.43
71254;HTU21D;59019;47.638;18.966;2022-12-13T15:51:15;-3.55;91.43
71254;HTU21D;59019;47.638;18.966;2022-12-13T15:57:02;-3.67;91.53
71254;HTU21D;59019;47.638;18.966;2022-12-13T15:59:39;-3.71;91.71
71254;HTU21D;59019;47.638;18.966;2022-12-13T16:02:18;-3.82;91.45
71254;HTU21D;59019;47.638;18.966;2022-12-13T16:04:45;-3.90;91.26
71254;HTU21D;59019;47.638;18.966;2022-12-13T16:07:24;-3.94;91.63
71254;HTU21D;59019;47.638;18.966;2022-12-13T16:09:52;-4.01;92.11
71254;HTU21D;59019;47.638;18.966;2022-12-13T16:12:25;-4.01;92.04
71254;HTU21D;59019;47.638;18.966;2022-12-13T16:15:15;-4.01;91.95
71254;HTU21D;59019;47.638;18.966;2022-12-13T16:17:40;-4.09;92.08
71254;HTU21D;59019;47.638;18.966;2022-12-13T16:20:11;-4.09;91.82
71254;HTU21D;59019;47.638;18.966;2022-12-13T16:22:38;-4.11;91.86
71254;HTU21D;59019;47.638;18.966;2022-12-13T16:25:04;-4.15;93.19
71254;HTU21D;59019;47.638;18.966;2022-12-13T16:27:30;-4.11;95.10
71254;HTU21D;59019;47.638;18.966;2022-12-13T16:29:55;-4.06;97.02
71254;HTU21D;59019;47.638;18.966;2022-12-13T16:32:21;-4.09;97.42
71254;HTU21D;59019;47.638;18.966;2022-12-13T16:34:46;-4.09;97.61
71254;HTU21D;59019;47.638;18.966;2022-12-13T16:37:12;-4.00;97.56
71254;HTU21D;59019;47.638;18.966;2022-12-13T16:39:38;-3.99;96.56
71254;HTU21D;59019;47.638;18.966;2022-12-13T16:42:05;-4.11;95.05
71254;HTU21D;59019;47.638;18.966;2022-12-13T16:44:35;-4.15;93.72
71254;HTU21D;59019;47.638;18.966;2022-12-13T16:47:01;-4.26;92.70
71254;HTU21D;59019;47.638;18.966;2022-12-13T16:49:31;-4.29;92.33
71254;HTU21D;59019;47.638;18.966;2022-12-13T16:51:57;-4.35;92.18
71254;HTU21D;59019;47.638;18.966;2022-12-13T16:54:23;-4.42;91.92
71254;HTU21D;59019;47.638;18.966;2022-12-13T16:56:50;-4.51;91.89
71254;HTU21D;59019;47.638;18.966;2022-12-13T16:59:18;-4.57;92.05
71254;HTU21D;59019;47.638;18.966;2022-12-13T17:01:45;-4.48;91.97
71254;HTU21D;59019;47.638;18.966;2022-12-13T17:04:14;-4.55;91.05
71254;HTU21D;59019;47.638;18.966;2022-12-13T17:06:40;-4.59;90.69
71254;HTU21D;59019;47.638;18.966;2022-12-13T17:09:06;-4.74;90.36
71254;HTU21D;59019;47.638;18.966;2022-12-13T17:11:32;-4.83;91.17
71254;HTU21D;59019;47.638;18.966;2022-12-13T17:13:58;-4.83;91.52
71254;HTU21D;59019;47.638;18.966;2022-12-13T17:16:24;-4.85;91.05
71254;HTU21D;59019;47.638;18.966;2022-12-13T17:18:50;-4.99;90.81
71254;HTU21D;59019;47.638;18.966;2022-12-13T17:21:18;-5.03;92.53
71254;HTU21D;59019;47.638;18.966;2022-12-13T17:23:46;-5.01;94.39
71254;HTU21D;59019;47.638;18.966;2022-12-13T17:26:12;-4.99;95.94
71254;HTU21D;59019;47.638;18.966;2022-12-13T17:28:38;-5.10;95.36
71254;HTU21D;59019;47.638;18.966;2022-12-13T17:33:30;-5.12;94.32
71254;HTU21D;59019;47.638;18.966;2022-12-13T17:35:56;-5.12;94.02
71254;HTU21D;59019;47.638;18.966;2022-12-13T17:38:21;-5.22;93.70
71254;HTU21D;59019;47.638;18.966;2022-12-13T17:40:51;-5.22;93.72
71254;HTU21D;59019;47.638;18.966;2022-12-13T17:43:19;-5.23;93.56
71254;HTU21D;59019;47.638;18.966;2022-12-13T17:45:44;-5.29;93.46